createdAt,value
2019-02-10T00:00:55.326Z,79.79
2019-02-10T00:01:55.281Z,79.58
2019-02-10T00:02:55.276Z,79.79
2019-02-10T00:03:55.271Z,79.48
2019-02-10T00:04:55.272Z,79.79
2019-02-10T00:05:55.230Z,79.48
2019-02-10T00:06:55.226Z,79.58
2019-02-10T00:07:55.211Z,79.48
2019-02-10T00:08:56.950Z,79.38
2019-02-10T00:09:55.207Z,79.17
2019-02-10T00:10:55.193Z,79.17
2019-02-10T00:11:55.166Z,79.17
2019-02-10T00:12:55.157Z,78.86
2019-02-10T00:13:55.159Z,78.97
2019-02-10T00:14:55.159Z,79.17
2019-02-10T00:15:55.139Z,79.17
2019-02-10T00:16:55.130Z,79.17
2019-02-10T00:17:55.121Z,79.17
2019-02-10T00:18:55.089Z,79.17
2019-02-10T00:19:55.081Z,79.17
2019-02-10T00:20:55.133Z,79.07
2019-02-10T00:21:55.055Z,79.27
2019-02-10T00:22:55.047Z,79.27
2019-02-10T00:23:55.043Z,79.48
2019-02-10T00:24:55.021Z,79.38
2019-02-10T00:25:55.021Z,79.27
2019-02-10T00:26:55.080Z,79.17
2019-02-10T00:27:54.996Z,79.17
2019-02-10T00:28:54.978Z,79.17
2019-02-10T00:29:54.969Z,79.17
2019-02-10T00:30:54.983Z,79.07
2019-02-10T00:31:54.964Z,79.38
2019-02-10T00:32:54.932Z,79.00
2019-02-10T00:33:54.929Z,79.41
2019-02-10T00:34:54.912Z,79.31
2019-02-10T00:35:54.901Z,79.07
2019-02-10T00:36:54.925Z,79.52
2019-02-10T00:37:54.887Z,79.11
2019-02-10T00:38:54.864Z,79.31
2019-02-10T00:39:54.855Z,78.90
2019-02-10T00:40:54.850Z,78.90
2019-02-10T00:41:54.851Z,79.21
2019-02-10T00:42:54.824Z,79.21
2019-02-10T00:43:54.828Z,79.62
2019-02-10T00:44:54.804Z,80.04
2019-02-10T00:45:54.789Z,79.97
2019-02-10T00:46:54.796Z,79.86
2019-02-10T00:47:54.769Z,80.28
2019-02-10T00:48:54.770Z,80.38
2019-02-10T00:49:54.743Z,80.38
2019-02-10T00:50:54.738Z,80.48
2019-02-10T00:51:54.743Z,80.52
2019-02-10T00:52:54.710Z,80.58
2019-02-10T00:53:54.700Z,80.58
2019-02-10T00:54:54.695Z,80.48
2019-02-10T00:55:54.679Z,80.38
2019-02-10T00:56:54.741Z,80.28
2019-02-10T00:57:54.657Z,80.28
2019-02-10T00:58:54.650Z,80.69
2019-02-10T00:59:54.655Z,80.79
2019-02-10T01:00:54.626Z,81.04
2019-02-10T01:01:54.630Z,81.04
2019-02-10T01:02:54.602Z,81.10
2019-02-10T01:03:54.593Z,81.04
2019-02-10T01:04:54.580Z,81.14
2019-02-10T01:05:54.575Z,81.14
2019-02-10T01:06:54.583Z,81.66
2019-02-10T01:07:54.560Z,81.96
2019-02-10T01:08:54.539Z,82.42
2019-02-10T01:09:54.525Z,82.52
2019-02-10T01:10:54.511Z,82.52
2019-02-10T01:11:54.514Z,82.52
2019-02-10T01:12:54.526Z,82.52
2019-02-10T01:13:54.504Z,82.31
2019-02-10T01:14:54.472Z,82.93
2019-02-10T01:15:54.463Z,82.62
2019-02-10T01:16:54.446Z,82.42
2019-02-10T01:17:54.448Z,82.52
2019-02-10T01:18:54.448Z,83.25
2019-02-10T01:19:54.411Z,82.42
2019-02-10T01:20:54.421Z,82.52
2019-02-10T01:21:54.395Z,82.52
2019-02-10T01:22:54.405Z,83.04
2019-02-10T01:23:54.375Z,82.31
2019-02-10T01:24:54.359Z,82.73
2019-02-10T01:25:54.346Z,82.73
2019-02-10T01:26:54.337Z,82.93
2019-02-10T01:27:54.353Z,82.62
2019-02-10T01:28:54.320Z,82.52
2019-02-10T01:29:54.315Z,82.52
2019-02-10T01:30:54.295Z,82.62
2019-02-10T01:31:54.283Z,82.52
2019-02-10T01:32:54.274Z,82.31
2019-02-10T01:33:54.296Z,82.42
2019-02-10T01:34:54.250Z,82.52
2019-02-10T01:35:54.240Z,82.52
2019-02-10T01:36:54.233Z,82.31
2019-02-10T01:37:54.219Z,82.00
2019-02-10T01:38:54.223Z,82.10
2019-02-10T01:39:54.429Z,82.00
2019-02-10T01:40:54.190Z,82.31
2019-02-10T01:41:54.174Z,82.10
2019-02-10T01:42:54.167Z,82.21
2019-02-10T01:43:54.721Z,82.00
2019-02-10T01:44:54.140Z,82.31
2019-02-10T01:45:54.132Z,82.10
2019-02-10T01:46:54.121Z,82.10
2019-02-10T01:47:54.106Z,81.80
2019-02-10T01:48:54.116Z,81.76
2019-02-10T01:49:54.092Z,81.35
2019-02-10T01:50:54.073Z,81.24
2019-02-10T01:51:54.067Z,81.66
2019-02-10T01:52:54.060Z,81.28
2019-02-10T01:53:54.076Z,80.73
2019-02-10T01:54:54.040Z,80.73
2019-02-10T01:55:54.026Z,80.83
2019-02-10T01:56:54.018Z,81.04
2019-02-10T01:57:53.998Z,81.24
2019-02-10T01:58:54.004Z,81.04
2019-02-10T01:59:53.996Z,80.93
2019-02-10T02:00:53.970Z,81.14
2019-02-10T02:01:53.953Z,81.14
2019-02-10T02:02:53.959Z,80.93
2019-02-10T02:03:53.932Z,81.14
2019-02-10T02:04:53.953Z,80.93
2019-02-10T02:05:53.908Z,80.83
2019-02-10T02:06:57.968Z,80.52
2019-02-10T02:07:53.928Z,80.52
2019-02-10T02:08:53.892Z,80.52
2019-02-10T02:09:53.883Z,80.83
2019-02-10T02:10:53.859Z,80.52
2019-02-10T02:11:53.845Z,80.32
2019-02-10T02:12:53.837Z,80.73
2019-02-10T02:13:53.845Z,80.73
2019-02-10T02:14:53.843Z,81.04
2019-02-10T02:15:53.805Z,80.93
2019-02-10T02:16:53.790Z,80.83
2019-02-10T02:17:53.793Z,80.83
2019-02-10T02:18:53.766Z,80.83
2019-02-10T02:19:53.776Z,81.04
2019-02-10T02:20:53.747Z,80.73
2019-02-10T02:21:53.748Z,81.04
2019-02-10T02:22:53.721Z,80.83
2019-02-10T02:23:53.711Z,80.83
2019-02-10T02:24:53.708Z,80.83
2019-02-10T02:25:53.710Z,81.28
2019-02-10T02:26:53.678Z,81.38
2019-02-10T02:27:53.670Z,81.18
2019-02-10T02:28:53.655Z,80.35
2019-02-10T02:29:53.650Z,81.28
2019-02-10T02:30:53.663Z,81.28
2019-02-10T02:31:53.625Z,81.38
2019-02-10T02:32:53.616Z,81.18
2019-02-10T02:33:53.629Z,81.38
2019-02-10T02:34:53.591Z,81.70
2019-02-10T02:35:53.597Z,81.59
2019-02-10T02:36:53.575Z,81.49
2019-02-10T02:37:53.562Z,81.59
2019-02-10T02:38:53.543Z,81.70
2019-02-10T02:39:53.539Z,81.70
2019-02-10T02:40:53.542Z,81.38
2019-02-10T02:41:53.517Z,82.10
2019-02-10T02:42:53.507Z,82.10
2019-02-10T02:43:53.490Z,82.31
2019-02-10T02:44:53.479Z,82.10
2019-02-10T02:45:53.494Z,82.62
2019-02-10T02:46:53.466Z,82.21
2019-02-10T02:47:53.448Z,82.21
2019-02-10T02:48:53.435Z,82.31
2019-02-10T02:49:53.424Z,82.10
2019-02-10T02:50:53.435Z,82.31
2019-02-10T02:51:53.425Z,82.62
2019-02-10T02:52:53.391Z,82.10
2019-02-10T02:53:53.380Z,82.35
2019-02-10T02:54:53.372Z,82.15
2019-02-10T02:55:53.378Z,82.31
2019-02-10T02:56:53.368Z,82.31
2019-02-10T02:57:53.342Z,82.56
2019-02-10T02:58:53.324Z,82.52
2019-02-10T02:59:53.313Z,82.62
2019-02-10T03:00:53.313Z,82.62
2019-02-10T03:01:53.313Z,82.66
2019-02-10T03:02:53.281Z,82.73
2019-02-10T03:03:53.280Z,82.45
2019-02-10T03:04:53.261Z,82.66
2019-02-10T03:05:53.249Z,82.42
2019-02-10T03:06:53.255Z,81.28
2019-02-10T03:07:53.229Z,82.04
2019-02-10T03:08:53.226Z,82.45
2019-02-10T03:09:53.218Z,82.31
2019-02-10T03:10:53.200Z,82.21
2019-02-10T03:11:53.206Z,81.80
2019-02-10T03:12:53.172Z,80.29
2019-02-10T03:13:53.167Z,80.25
2019-02-10T03:14:53.150Z,80.66
2019-02-10T03:15:53.146Z,80.04
2019-02-10T03:16:53.129Z,78.59
2019-02-10T03:17:53.132Z,79.52
2019-02-10T03:18:53.559Z,79.01
2019-02-10T03:19:53.094Z,78.28
2019-02-10T03:20:53.083Z,78.14
2019-02-10T03:21:53.095Z,78.45
2019-02-10T03:22:53.070Z,77.73
2019-02-10T03:23:53.057Z,77.94
2019-02-10T03:24:53.048Z,78.21
2019-02-10T03:25:53.036Z,77.49
2019-02-10T03:26:53.033Z,77.49
2019-02-10T03:27:53.024Z,77.80
2019-02-10T03:28:52.999Z,78.21
2019-02-10T03:29:52.987Z,80.24
2019-02-10T03:30:52.996Z,81.62
2019-02-10T03:31:52.968Z,81.99
2019-02-10T03:32:52.971Z,82.82
2019-02-10T03:33:52.941Z,82.92
2019-02-10T03:34:52.938Z,84.36
2019-02-10T03:35:52.924Z,84.16
2019-02-10T03:36:52.931Z,85.23
2019-02-10T03:37:52.917Z,85.30
2019-02-10T03:38:52.898Z,85.39
2019-02-10T03:39:52.881Z,85.60
2019-02-10T03:40:52.873Z,85.33
2019-02-10T03:41:52.859Z,86.12
2019-02-10T03:42:52.864Z,85.91
2019-02-10T03:43:52.840Z,86.02
2019-02-10T03:44:52.818Z,85.91
2019-02-10T03:45:52.816Z,86.63
2019-02-10T03:46:52.804Z,87.98
2019-02-10T03:47:52.804Z,87.98
2019-02-10T03:48:52.782Z,87.77
2019-02-10T03:49:52.767Z,87.87
2019-02-10T03:50:52.752Z,87.98
2019-02-10T03:51:52.742Z,86.84
2019-02-10T03:52:52.748Z,87.87
2019-02-10T03:53:52.735Z,89.01
2019-02-10T03:54:52.712Z,87.87
2019-02-10T03:55:52.701Z,87.77
2019-02-10T03:56:52.688Z,87.66
2019-02-10T03:57:52.698Z,87.66
2019-02-10T03:58:52.666Z,88.18
2019-02-10T03:59:52.665Z,89.01
2019-02-10T04:00:52.644Z,88.70
2019-02-10T04:01:52.640Z,87.98
2019-02-10T04:02:52.640Z,88.08
2019-02-10T04:03:52.655Z,88.39
2019-02-10T04:04:52.603Z,88.39
2019-02-10T04:05:52.598Z,88.90
2019-02-10T04:06:52.579Z,88.90
2019-02-10T04:07:52.571Z,89.73
2019-02-10T04:08:52.560Z,89.73
2019-02-10T04:09:52.569Z,90.59
2019-02-10T04:10:52.539Z,90.39
2019-02-10T04:11:52.524Z,90.49
2019-02-10T04:12:52.517Z,90.49
2019-02-10T04:13:52.531Z,90.97
2019-02-10T04:14:52.502Z,91.42
2019-02-10T04:15:52.486Z,90.91
2019-02-10T04:16:52.467Z,91.01
2019-02-10T04:17:52.472Z,90.80
2019-02-10T04:18:52.475Z,90.28
2019-02-10T04:19:52.469Z,90.66
2019-02-10T04:20:52.435Z,90.91
2019-02-10T04:21:52.416Z,91.48
2019-02-10T04:22:52.428Z,90.76
2019-02-10T04:23:52.432Z,90.97
2019-02-10T04:24:52.403Z,91.42
2019-02-10T04:25:52.386Z,91.52
2019-02-10T04:26:52.365Z,90.76
2019-02-10T04:27:52.347Z,90.35
2019-02-10T04:28:52.340Z,90.45
2019-02-10T04:29:52.348Z,89.94
2019-02-10T04:30:52.317Z,89.42
2019-02-10T04:31:52.307Z,90.55
2019-02-10T04:32:52.294Z,90.76
2019-02-10T04:33:52.281Z,89.83
2019-02-10T04:34:52.294Z,90.59
2019-02-10T04:35:52.261Z,91.28
2019-02-10T04:36:52.246Z,90.25
2019-02-10T04:37:52.243Z,90.59
2019-02-10T04:38:52.227Z,90.76
2019-02-10T04:39:52.271Z,90.97
2019-02-10T04:40:52.225Z,90.45
2019-02-10T04:41:52.193Z,89.83
2019-02-10T04:42:52.186Z,90.14
2019-02-10T04:43:52.170Z,90.97
2019-02-10T04:44:52.158Z,90.86
2019-02-10T04:45:52.172Z,91.79
2019-02-10T04:46:52.142Z,91.94
2019-02-10T04:47:52.128Z,91.17
2019-02-10T04:48:52.114Z,90.45
2019-02-10T04:49:52.105Z,90.80
2019-02-10T04:50:52.110Z,90.49
2019-02-10T04:51:52.088Z,91.42
2019-02-10T04:52:52.070Z,90.70
2019-02-10T04:53:52.058Z,91.38
2019-02-10T04:54:52.046Z,91.11
2019-02-10T04:55:52.051Z,90.80
2019-02-10T04:56:52.042Z,90.39
2019-02-10T04:57:52.024Z,89.67
2019-02-10T04:58:52.010Z,90.70
2019-02-10T04:59:52.007Z,91.01
2019-02-10T05:00:52.004Z,91.32
2019-02-10T05:01:51.975Z,90.91
2019-02-10T05:02:51.961Z,90.91
2019-02-10T05:03:51.952Z,90.70
2019-02-10T05:04:51.944Z,90.91
2019-02-10T05:05:51.956Z,91.32
2019-02-10T05:06:51.952Z,91.42
2019-02-10T05:07:54.560Z,90.55
2019-02-10T05:08:51.895Z,90.39
2019-02-10T05:09:51.883Z,90.59
2019-02-10T05:10:51.873Z,91.28
2019-02-10T05:11:51.876Z,92.04
2019-02-10T05:12:51.858Z,90.70
2019-02-10T05:13:51.839Z,90.86
2019-02-10T05:14:51.831Z,91.32
2019-02-10T05:15:51.831Z,91.42
2019-02-10T05:16:51.827Z,91.42
2019-02-10T05:17:51.804Z,90.91
2019-02-10T05:18:51.804Z,89.94
2019-02-10T05:19:51.776Z,89.87
2019-02-10T05:20:51.763Z,90.91
2019-02-10T05:21:51.770Z,89.56
2019-02-10T05:22:51.740Z,89.56
2019-02-10T05:23:51.732Z,90.70
2019-02-10T05:24:51.722Z,91.42
2019-02-10T05:25:51.708Z,91.94
2019-02-10T05:26:51.727Z,90.70
2019-02-10T05:27:51.686Z,89.36
2019-02-10T05:28:51.675Z,90.97
2019-02-10T05:29:51.664Z,91.42
2019-02-10T05:30:51.656Z,90.49
2019-02-10T05:31:51.679Z,90.04
2019-02-10T05:32:51.638Z,91.11
2019-02-10T05:33:51.616Z,90.49
2019-02-10T05:34:51.606Z,91.38
2019-02-10T05:35:51.594Z,91.42
2019-02-10T05:36:51.593Z,91.01
2019-02-10T05:37:51.598Z,91.73
2019-02-10T05:38:51.575Z,92.00
2019-02-10T05:39:51.554Z,91.42
2019-02-10T05:40:51.546Z,90.28
2019-02-10T05:41:51.527Z,89.87
2019-02-10T05:42:51.538Z,90.59
2019-02-10T05:43:51.504Z,89.77
2019-02-10T05:44:51.494Z,90.76
2019-02-10T05:45:51.484Z,90.25
2019-02-10T05:46:51.471Z,90.39
2019-02-10T05:47:51.486Z,88.90
2019-02-10T05:48:51.448Z,89.62
2019-02-10T05:49:51.445Z,88.18
2019-02-10T05:50:51.427Z,89.11
2019-02-10T05:51:51.417Z,89.11
2019-02-10T05:52:51.421Z,89.83
2019-02-10T05:53:51.396Z,90.45
2019-02-10T05:54:51.389Z,89.22
2019-02-10T05:55:51.377Z,89.83
2019-02-10T05:56:51.363Z,89.62
2019-02-10T05:57:51.368Z,89.73
2019-02-10T05:58:51.364Z,88.59
2019-02-10T05:59:51.331Z,89.11
2019-02-10T06:00:51.333Z,88.18
2019-02-10T06:01:51.311Z,89.42
2019-02-10T06:02:51.312Z,87.98
2019-02-10T06:03:51.285Z,87.98
2019-02-10T06:04:51.272Z,87.66
2019-02-10T06:05:51.266Z,89.11
2019-02-10T06:06:51.258Z,87.98
2019-02-10T06:07:51.267Z,88.39
2019-02-10T06:08:51.226Z,86.63
2019-02-10T06:09:51.236Z,88.70
2019-02-10T06:10:51.211Z,87.05
2019-02-10T06:11:51.196Z,87.77
2019-02-10T06:12:51.188Z,88.29
2019-02-10T06:13:51.186Z,88.39
2019-02-10T06:14:51.162Z,88.39
2019-02-10T06:15:51.147Z,87.77
2019-02-10T06:16:51.146Z,86.74
2019-02-10T06:17:51.143Z,86.39
2019-02-10T06:18:51.142Z,86.32
2019-02-10T06:19:51.132Z,86.22
2019-02-10T06:20:51.095Z,86.43
2019-02-10T06:21:51.085Z,85.81
2019-02-10T06:22:51.073Z,85.91
2019-02-10T06:23:51.061Z,85.97
2019-02-10T06:24:51.072Z,85.71
2019-02-10T06:25:51.043Z,87.32
2019-02-10T06:26:51.035Z,85.87
2019-02-10T06:27:51.019Z,86.18
2019-02-10T06:28:51.009Z,86.08
2019-02-10T06:29:51.040Z,86.39
2019-02-10T06:30:50.990Z,85.77
2019-02-10T06:31:50.978Z,86.29
2019-02-10T06:32:50.970Z,83.40
2019-02-10T06:33:50.968Z,85.25
2019-02-10T06:34:50.959Z,84.01
2019-02-10T06:35:50.942Z,84.74
2019-02-10T06:36:50.919Z,83.77
2019-02-10T06:37:50.905Z,84.29
2019-02-10T06:38:50.906Z,85.31
2019-02-10T06:39:50.904Z,84.29
2019-02-10T06:40:50.880Z,84.19
2019-02-10T06:41:50.862Z,84.19
2019-02-10T06:42:50.851Z,85.11
2019-02-10T06:43:50.845Z,84.49
2019-02-10T06:44:50.849Z,83.36
2019-02-10T06:45:50.863Z,84.08
2019-02-10T06:46:50.814Z,82.54
2019-02-10T06:47:50.796Z,83.36
2019-02-10T06:48:50.785Z,83.98
2019-02-10T06:49:50.776Z,84.08
2019-02-10T06:50:50.790Z,84.29
2019-02-10T06:51:50.752Z,83.26
2019-02-10T06:52:50.747Z,82.12
2019-02-10T06:53:50.732Z,84.59
2019-02-10T06:54:50.718Z,82.09
2019-02-10T06:55:50.733Z,81.92
2019-02-10T06:56:50.698Z,82.70
2019-02-10T06:57:50.690Z,81.98
2019-02-10T06:58:50.681Z,83.12
2019-02-10T06:59:50.665Z,82.91
2019-02-10T07:00:50.680Z,83.42
2019-02-10T07:01:50.641Z,82.81
2019-02-10T07:02:50.634Z,81.47
2019-02-10T07:03:50.622Z,81.57
2019-02-10T07:04:50.609Z,82.19
2019-02-10T07:05:50.625Z,81.88
2019-02-10T07:06:50.584Z,80.65
2019-02-10T07:07:50.575Z,79.99
2019-02-10T07:08:50.564Z,79.88
2019-02-10T07:09:50.557Z,78.86
2019-02-10T07:10:50.579Z,79.44
2019-02-10T07:11:50.550Z,77.89
2019-02-10T07:12:50.519Z,79.64
2019-02-10T07:13:50.513Z,78.65
2019-02-10T07:14:50.498Z,79.03
2019-02-10T07:15:50.502Z,79.54
2019-02-10T07:16:50.491Z,78.00
2019-02-10T07:17:50.470Z,79.64
2019-02-10T07:18:50.458Z,79.64
2019-02-10T07:19:50.456Z,78.30
2019-02-10T07:20:50.431Z,77.89
2019-02-10T07:21:50.441Z,77.58
2019-02-10T07:22:50.413Z,78.10
2019-02-10T07:23:50.400Z,78.47
2019-02-10T07:24:50.388Z,77.38
2019-02-10T07:25:50.392Z,76.83
2019-02-10T07:26:50.385Z,76.52
2019-02-10T07:27:50.361Z,76.52
2019-02-10T07:28:50.355Z,76.42
2019-02-10T07:29:50.335Z,77.00
2019-02-10T07:30:50.319Z,76.90
2019-02-10T07:31:50.329Z,76.59
2019-02-10T07:32:50.300Z,75.97
2019-02-10T07:33:50.288Z,75.56
2019-02-10T07:34:50.288Z,75.97
2019-02-10T07:35:50.272Z,77.72
2019-02-10T07:36:50.283Z,75.67
2019-02-10T07:37:50.267Z,75.87
2019-02-10T07:38:50.238Z,75.67
2019-02-10T07:39:50.231Z,75.93
2019-02-10T07:40:50.219Z,76.25
2019-02-10T07:41:50.199Z,77.48
2019-02-10T07:42:50.219Z,77.58
2019-02-10T07:43:50.187Z,77.00
2019-02-10T07:44:50.175Z,76.04
2019-02-10T07:45:50.158Z,75.93
2019-02-10T07:46:50.146Z,77.68
2019-02-10T07:47:50.154Z,76.48
2019-02-10T07:48:50.133Z,76.59
2019-02-10T07:49:50.118Z,77.51
2019-02-10T07:50:50.106Z,75.93
2019-02-10T07:51:50.101Z,76.25
2019-02-10T07:52:50.113Z,76.04
2019-02-10T07:53:50.070Z,76.35
2019-02-10T07:54:50.079Z,76.04
2019-02-10T07:55:50.048Z,76.55
2019-02-10T07:56:50.046Z,76.45
2019-02-10T07:57:50.027Z,76.14
2019-02-10T07:58:50.032Z,77.37
2019-02-10T07:59:50.001Z,76.86
2019-02-10T08:00:50.003Z,76.55
2019-02-10T08:01:49.987Z,77.17
2019-02-10T08:02:49.971Z,76.86
2019-02-10T08:03:50.029Z,75.73
2019-02-10T08:04:49.951Z,76.45
2019-02-10T08:05:49.938Z,76.25
2019-02-10T08:06:49.931Z,77.17
2019-02-10T08:07:49.925Z,76.14
2019-02-10T08:08:49.926Z,77.78
2019-02-10T08:09:49.899Z,78.40
2019-02-10T08:10:49.885Z,77.37
2019-02-10T08:11:49.874Z,78.20
2019-02-10T08:12:49.866Z,78.03
2019-02-10T08:13:49.893Z,77.41
2019-02-10T08:14:49.846Z,78.54
2019-02-10T08:15:49.842Z,79.02
2019-02-10T08:16:49.843Z,79.16
2019-02-10T08:17:49.826Z,78.44
2019-02-10T08:18:49.844Z,80.49
2019-02-10T08:19:49.792Z,80.19
2019-02-10T08:20:49.786Z,80.60
2019-02-10T08:21:49.781Z,80.70
2019-02-10T08:22:49.848Z,80.80
2019-02-10T08:23:49.805Z,82.14
2019-02-10T08:24:49.770Z,81.25
2019-02-10T08:25:49.736Z,81.35
2019-02-10T08:26:49.712Z,81.25
2019-02-10T08:27:49.699Z,81.76
2019-02-10T08:28:49.697Z,81.67
2019-02-10T08:29:49.704Z,81.76
2019-02-10T08:30:49.676Z,84.13
2019-02-10T08:31:49.678Z,82.79
2019-02-10T08:32:49.645Z,82.48
2019-02-10T08:33:49.646Z,82.79
2019-02-10T08:34:49.650Z,84.75
2019-02-10T08:35:49.638Z,83.62
2019-02-10T08:36:49.607Z,85.36
2019-02-10T08:37:49.617Z,83.83
2019-02-10T08:38:54.444Z,85.41
2019-02-10T08:39:50.600Z,85.98
2019-02-10T08:40:49.558Z,85.68
2019-02-10T08:41:49.557Z,86.02
2019-02-10T08:42:49.548Z,85.71
2019-02-10T08:43:49.542Z,85.61
2019-02-10T08:44:49.573Z,85.10
2019-02-10T08:45:49.507Z,84.07
2019-02-10T08:46:49.495Z,85.82
2019-02-10T08:47:49.484Z,85.06
2019-02-10T08:48:49.479Z,84.27
2019-02-10T08:49:49.489Z,84.07
2019-02-10T08:50:49.490Z,83.41
2019-02-10T08:51:49.449Z,82.93
2019-02-10T08:52:51.870Z,84.85
2019-02-10T08:53:49.419Z,83.51
2019-02-10T08:54:49.429Z,84.13
2019-02-10T08:55:49.445Z,84.75
2019-02-10T08:56:49.385Z,83.62
2019-02-10T08:57:49.377Z,82.69
2019-02-10T08:58:49.364Z,83.31
2019-02-10T08:59:49.353Z,83.72
2019-02-10T09:00:49.373Z,83.72
2019-02-10T09:01:49.355Z,84.75
2019-02-10T09:02:49.337Z,83.83
2019-02-10T09:03:49.321Z,84.13
2019-02-10T09:04:49.303Z,82.69
2019-02-10T09:05:49.315Z,82.04
2019-02-10T09:06:49.289Z,84.20
2019-02-10T09:07:49.279Z,84.50
2019-02-10T09:08:49.266Z,84.20
2019-02-10T09:09:49.270Z,83.48
2019-02-10T09:10:49.274Z,83.89
2019-02-10T09:11:49.232Z,81.93
2019-02-10T09:12:49.241Z,81.62
2019-02-10T09:13:49.215Z,82.45
2019-02-10T09:14:49.195Z,83.37
2019-02-10T09:15:49.208Z,82.96
2019-02-10T09:16:49.176Z,83.89
2019-02-10T09:17:49.163Z,82.24
2019-02-10T09:18:49.145Z,81.62
2019-02-10T09:19:49.134Z,81.01
2019-02-10T09:20:49.154Z,81.18
2019-02-10T09:21:49.117Z,81.38
2019-02-10T09:22:49.109Z,80.97
2019-02-10T09:23:49.098Z,81.07
2019-02-10T09:24:49.091Z,79.84
2019-02-10T09:25:49.105Z,78.30
2019-02-10T09:26:49.064Z,80.21
2019-02-10T09:27:49.045Z,78.88
2019-02-10T09:28:49.068Z,77.44
2019-02-10T09:29:49.029Z,78.27
2019-02-10T09:30:49.013Z,78.06
2019-02-10T09:31:49.020Z,78.16
2019-02-10T09:32:48.996Z,78.67
2019-02-10T09:33:49.003Z,79.19
2019-02-10T09:34:48.980Z,78.47
2019-02-10T09:35:48.976Z,77.00
2019-02-10T09:36:48.977Z,77.71
2019-02-10T09:37:48.939Z,78.64
2019-02-10T09:38:48.937Z,77.85
2019-02-10T09:39:48.917Z,77.71
2019-02-10T09:40:48.929Z,76.58
2019-02-10T09:41:48.961Z,78.33
2019-02-10T09:42:48.887Z,77.71
2019-02-10T09:43:48.875Z,78.12
2019-02-10T09:44:48.866Z,77.30
2019-02-10T09:45:48.871Z,76.38
2019-02-10T09:46:48.876Z,76.48
2019-02-10T09:47:48.850Z,76.38
2019-02-10T09:48:48.820Z,76.45
2019-02-10T09:49:48.809Z,76.75
2019-02-10T09:50:48.797Z,78.50
2019-02-10T09:51:48.832Z,78.81
2019-02-10T09:52:48.781Z,78.09
2019-02-10T09:53:48.774Z,79.42
2019-02-10T09:54:48.774Z,80.24
2019-02-10T09:55:48.754Z,78.39
2019-02-10T09:56:48.760Z,77.00
2019-02-10T09:57:48.751Z,79.22
2019-02-10T09:58:48.715Z,81.82
2019-02-10T09:59:48.698Z,79.22
2019-02-10T10:00:48.719Z,79.52
2019-02-10T10:01:48.674Z,81.41
2019-02-10T10:02:48.673Z,81.06
2019-02-10T10:03:48.658Z,82.03
2019-02-10T10:04:48.646Z,83.12
2019-02-10T10:05:48.687Z,82.33
2019-02-10T10:06:48.620Z,83.29
2019-02-10T10:07:48.617Z,82.23
2019-02-10T10:08:48.596Z,82.84
2019-02-10T10:09:48.636Z,84.59
2019-02-10T10:10:48.587Z,82.68
2019-02-10T10:11:48.608Z,83.26
2019-02-10T10:12:48.555Z,82.47
2019-02-10T10:13:48.751Z,83.40
2019-02-10T10:14:48.533Z,82.33
2019-02-10T10:15:48.534Z,83.91
2019-02-10T10:16:48.518Z,84.84
2019-02-10T10:17:48.509Z,82.33
2019-02-10T10:18:48.797Z,82.27
2019-02-10T10:19:48.480Z,83.19
2019-02-10T10:20:48.478Z,82.57
2019-02-10T10:21:48.458Z,83.09
2019-02-10T10:22:48.446Z,82.03
2019-02-10T10:23:48.459Z,82.27
2019-02-10T10:24:50.570Z,83.70
2019-02-10T10:25:48.415Z,83.15
2019-02-10T10:26:48.425Z,82.89
2019-02-10T10:27:48.402Z,81.96
2019-02-10T10:28:48.395Z,82.03
2019-02-10T10:29:48.378Z,82.89
2019-02-10T10:30:48.387Z,82.43
2019-02-10T10:31:48.371Z,82.95
2019-02-10T10:32:48.342Z,82.43
2019-02-10T10:33:48.374Z,83.67
2019-02-10T10:34:48.319Z,84.59
2019-02-10T10:35:48.308Z,84.01
2019-02-10T10:36:48.384Z,85.46
2019-02-10T10:37:48.283Z,85.76
2019-02-10T10:38:48.297Z,85.25
2019-02-10T10:39:48.263Z,86.07
2019-02-10T10:40:48.255Z,85.76
2019-02-10T10:41:48.250Z,86.38
2019-02-10T10:42:48.233Z,86.48
2019-02-10T10:43:48.253Z,86.21
2019-02-10T10:44:48.224Z,87.55
2019-02-10T10:45:48.199Z,86.72
2019-02-10T10:46:48.195Z,88.27
2019-02-10T10:47:48.173Z,88.89
2019-02-10T10:48:48.172Z,89.09
2019-02-10T10:49:48.186Z,87.45
2019-02-10T10:50:48.186Z,87.85
2019-02-10T10:51:48.131Z,88.78
2019-02-10T10:52:48.124Z,88.27
2019-02-10T10:53:48.120Z,88.57
2019-02-10T10:54:48.157Z,87.79
2019-02-10T10:55:48.087Z,88.41
2019-02-10T10:56:48.093Z,88.17
2019-02-10T10:57:48.070Z,88.17
2019-02-10T10:58:48.061Z,88.89
2019-02-10T10:59:48.080Z,88.27
2019-02-10T11:00:48.037Z,88.68
2019-02-10T11:01:48.021Z,88.62
2019-02-10T11:02:48.016Z,88.89
2019-02-10T11:03:48.003Z,88.17
2019-02-10T11:04:48.019Z,89.54
2019-02-10T11:05:47.987Z,88.06
2019-02-10T11:06:47.984Z,89.50
2019-02-10T11:07:47.954Z,89.09
2019-02-10T11:08:47.944Z,89.54
2019-02-10T11:09:48.012Z,89.85
2019-02-10T11:10:48.022Z,90.98
2019-02-10T11:11:47.909Z,91.19
2019-02-10T11:12:47.903Z,90.67
2019-02-10T11:13:47.890Z,91.08
2019-02-10T11:14:47.882Z,90.98
2019-02-10T11:15:47.903Z,91.49
2019-02-10T11:16:47.856Z,91.49
2019-02-10T11:17:47.846Z,91.39
2019-02-10T11:18:47.833Z,92.21
2019-02-10T11:19:47.857Z,91.80
2019-02-10T11:20:47.816Z,92.11
2019-02-10T11:21:47.807Z,91.29
2019-02-10T11:22:47.791Z,91.70
2019-02-10T11:23:47.781Z,90.98
2019-02-10T11:24:47.840Z,91.19
2019-02-10T11:25:47.785Z,91.80
2019-02-10T11:26:47.752Z,91.19
2019-02-10T11:27:47.740Z,91.91
2019-02-10T11:28:47.741Z,91.08
2019-02-10T11:29:48.179Z,91.70
2019-02-10T11:30:47.788Z,91.29
2019-02-10T11:31:47.692Z,92.42
2019-02-10T11:32:47.691Z,92.11
2019-02-10T11:33:47.671Z,92.32
2019-02-10T11:34:47.673Z,92.32
2019-02-10T11:35:47.735Z,92.21
2019-02-10T11:36:47.638Z,92.52
2019-02-10T11:37:47.626Z,92.73
2019-02-10T11:38:47.618Z,92.52
2019-02-10T11:39:47.614Z,92.01
2019-02-10T11:40:47.631Z,92.83
2019-02-10T11:41:47.582Z,92.32
2019-02-10T11:42:47.581Z,92.73
2019-02-10T11:43:47.563Z,92.63
2019-02-10T11:44:47.552Z,92.63
2019-02-10T11:45:47.554Z,93.14
2019-02-10T11:46:47.555Z,93.20
2019-02-10T11:47:47.526Z,92.89
2019-02-10T11:48:47.506Z,92.58
2019-02-10T11:49:47.500Z,92.73
2019-02-10T11:50:47.536Z,92.58
2019-02-10T11:51:47.487Z,92.63
2019-02-10T11:52:47.475Z,92.73
2019-02-10T11:53:47.464Z,92.27
2019-02-10T11:54:47.461Z,92.38
2019-02-10T11:55:47.449Z,92.48
2019-02-10T11:56:47.467Z,92.27
2019-02-10T11:57:47.412Z,94.33
2019-02-10T11:58:47.407Z,93.20
2019-02-10T11:59:47.388Z,92.69
2019-02-10T12:00:47.391Z,93.10
2019-02-10T12:01:47.392Z,92.79
2019-02-10T12:02:47.368Z,93.82
2019-02-10T12:03:47.343Z,94.12
2019-02-10T12:04:47.340Z,92.58
2019-02-10T12:05:47.321Z,94.33
2019-02-10T12:06:47.691Z,93.16
2019-02-10T12:07:47.318Z,92.95
2019-02-10T12:08:47.296Z,92.95
2019-02-10T12:09:51.679Z,94.29
2019-02-10T12:10:47.299Z,93.57
2019-02-10T12:11:47.703Z,93.26
2019-02-10T12:12:47.253Z,93.67
2019-02-10T12:13:47.244Z,92.95
2019-02-10T12:14:47.269Z,94.49
2019-02-10T12:15:47.214Z,94.39
2019-02-10T12:16:47.260Z,93.16
2019-02-10T12:17:47.224Z,93.36
2019-02-10T12:18:47.195Z,92.95
2019-02-10T12:19:47.177Z,93.26
2019-02-10T12:20:47.166Z,92.64
2019-02-10T12:21:47.152Z,93.32
2019-02-10T12:22:50.231Z,93.77
2019-02-10T12:23:47.162Z,92.85
2019-02-10T12:24:47.129Z,94.45
2019-02-10T12:25:47.124Z,93.93
2019-02-10T12:26:47.128Z,93.01
2019-02-10T12:27:47.113Z,92.70
2019-02-10T12:28:47.085Z,93.12
2019-02-10T12:29:47.073Z,93.93
2019-02-10T12:30:47.053Z,93.12
2019-02-10T12:31:47.055Z,92.91
2019-02-10T12:32:47.061Z,94.29
2019-02-10T12:33:47.037Z,93.93
2019-02-10T12:34:47.011Z,92.80
2019-02-10T12:35:47.000Z,93.12
2019-02-10T12:36:46.990Z,94.34
2019-02-10T12:37:47.026Z,92.80
2019-02-10T12:38:46.968Z,94.14
2019-02-10T12:39:46.970Z,94.04
2019-02-10T12:40:48.355Z,94.08
2019-02-10T12:41:46.937Z,94.34
2019-02-10T12:42:46.938Z,94.34
2019-02-10T12:43:46.944Z,94.14
2019-02-10T12:44:46.900Z,93.83
2019-02-10T12:45:46.903Z,93.93
2019-02-10T12:46:46.882Z,94.24
2019-02-10T12:47:46.880Z,93.93
2019-02-10T12:48:46.883Z,93.52
2019-02-10T12:49:46.845Z,94.04
2019-02-10T12:50:46.860Z,94.08
2019-02-10T12:51:46.835Z,93.83
2019-02-10T12:52:46.819Z,94.24